Time;durP1;ratioP1;P1;durP2;ratioP2;P2;SDS_P1;SDS_P2;PMS_P1;PMS_P2;Temp;Humidity;BMP_temperature;BMP_pressure;BME280_temperature;BME280_humidity;BME280_pressure;Samples;Min_cycle;Max_cycle;Signal;HPM_P1;HPM_P2
2023/08/20 00:02:04;;;;;;;1.20;1.20;;;;;21.00;96465.00;;;;5133840;28;20197;-59
2023/08/20 00:04:33;;;;;;;1.98;1.88;;;;;21.10;96464.00;;;;5133830;28;20554;-59
2023/08/20 00:07:00;;;;;;;2.08;1.92;;;;;21.10;96460.00;;;;5133825;28;20220;-58
2023/08/20 00:09:30;;;;;;;1.80;1.70;;;;;21.10;96458.00;;;;5134222;28;20202;-59
2023/08/20 00:11:57;;;;;;;1.58;1.50;;;;;21.10;96455.00;;;;5133711;28;20266;-59
2023/08/20 00:14:52;;;;;;;1.63;1.52;;;;;21.20;96454.00;;;;5133649;28;20304;-59
2023/08/20 00:17:20;;;;;;;2.08;1.98;;;;;21.20;96455.00;;;;5134022;27;20210;-58
2023/08/20 00:19:48;;;;;;;1.63;1.52;;;;;21.20;96455.00;;;;5133714;28;20204;-58
2023/08/20 00:22:17;;;;;;;1.48;1.45;;;;;21.10;96455.00;;;;5133544;28;20561;-58
2023/08/20 00:24:46;;;;;;;1.75;1.65;;;;;21.10;96463.00;;;;5134104;28;20645;-58
2023/08/20 00:27:13;;;;;;;1.80;1.70;;;;;21.10;96469.00;;;;5133830;28;20209;-58
2023/08/20 00:29:41;;;;;;;1.30;1.27;;;;;21.10;96464.00;;;;5133587;28;20197;-60
2023/08/20 00:32:08;;;;;;;12.35;1.45;;;;;21.20;96459.00;;;;5133569;28;20190;-60
2023/08/20 00:34:35;;;;;;;2.20;2.08;;;;;21.10;96458.00;;;;5134123;28;20669;-60
2023/08/20 00:37:03;;;;;;;2.33;2.13;;;;;21.10;96462.00;;;;5133659;28;20681;-61
2023/08/20 00:39:31;;;;;;;1.90;1.77;;;;;21.10;96454.00;;;;5133830;28;20250;-59
2023/08/20 00:41:59;;;;;;;10.95;2.38;;;;;21.00;96452.00;;;;5132203;28;20197;-59
2023/08/20 00:44:27;;;;;;;2.90;2.33;;;;;21.00;96461.00;;;;5134950;28;20185;-59
2023/08/20 00:46:55;;;;;;;6.30;5.72;;;;;21.00;96463.00;;;;5133709;28;20262;-59
2023/08/20 00:49:22;;;;;;;2.17;2.05;;;;;20.90;96458.00;;;;5135019;27;20189;-59
2023/08/20 00:51:53;;;;;;;1.63;1.52;;;;;20.90;96463.00;;;;5137178;27;20193;-59
2023/08/20 00:54:20;;;;;;;5.45;4.53;;;;;20.90;96468.00;;;;5137036;27;20254;-59
2023/08/20 00:56:49;;;;;;;2.50;2.30;;;;;20.80;96466.00;;;;5137525;27;20213;-59
2023/08/20 00:59:19;;;;;;;1.70;1.60;;;;;20.80;96472.00;;;;5136971;27;20193;-59
2023/08/20 01:01:46;;;;;;;3.45;2.05;;;;;20.70;96473.00;;;;5136864;27;20200;-59
2023/08/20 01:04:14;;;;;;;1.77;1.67;;;;;20.70;96469.00;;;;5136868;27;20648;-59
2023/08/20 01:06:51;;;;;;;1.08;1.08;;;;;20.80;96474.00;;;;5136944;27;20229;-60
2023/08/20 01:09:30;;;;;;;1.73;1.35;;;;;20.70;96474.00;;;;5136919;27;20184;-59
2023/08/20 01:12:00;;;;;;;1.70;1.60;;;;;20.70;96467.00;;;;5136852;27;20189;-59
2023/08/20 01:14:29;;;;;;;2.15;2.05;;;;;20.70;96468.00;;;;5136636;27;20198;-59
2023/08/20 01:16:56;;;;;;;1.63;1.52;;;;;20.70;96468.00;;;;5136580;27;20212;-59
2023/08/20 01:19:24;;;;;;;2.85;2.55;;;;;20.70;96471.00;;;;5136894;27;20242;-59
2023/08/20 01:22:06;;;;;;;1.60;1.50;;;;;20.50;96472.00;;;;5137051;27;20201;-59
2023/08/20 01:24:53;;;;;;;1.38;1.27;;;;;20.40;96464.00;;;;5136531;27;20170;-59
2023/08/20 01:27:32;;;;;;;2.53;2.35;;;;;20.40;96458.00;;;;5136411;27;20316;-59
2023/08/20 01:30:03;;;;;;;3.95;2.47;;;;;20.40;96465.00;;;;5136987;27;20202;-60
2023/08/20 01:32:30;;;;;;;1.08;1.08;;;;;20.30;96460.00;;;;5136578;27;20231;-60
2023/08/20 01:34:58;;;;;;;1.88;1.77;;;;;20.40;96470.00;;;;5136350;27;20224;-60
2023/08/20 01:37:25;;;;;;;2.05;1.85;;;;;20.40;96469.00;;;;5136570;27;20221;-60
2023/08/20 01:39:52;;;;;;;1.20;1.08;;;;;20.40;96458.00;;;;5136165;27;20277;-60
2023/08/20 01:42:20;;;;;;;2.25;2.08;;;;;20.40;96455.00;;;;5136531;27;20185;-60
2023/08/20 01:44:47;;;;;;;1.70;1.60;;;;;20.40;96454.00;;;;5136831;27;20235;-60
2023/08/20 01:47:16;;;;;;;2.35;2.20;;;;;20.50;96456.00;;;;5136623;27;20206;-60
2023/08/20 01:49:43;;;;;;;1.65;1.55;;;;;20.40;96464.00;;;;5135070;27;20190;-60
2023/08/20 01:52:11;;;;;;;1.92;1.83;;;;;20.30;96460.00;;;;5136417;27;20198;-60
2023/08/20 01:54:38;;;;;;;2.28;2.17;;;;;20.30;96459.00;;;;5136201;27;20205;-60
2023/08/20 01:57:05;;;;;;;1.90;1.80;;;;;20.30;96461.00;;;;5136392;27;20223;-60
2023/08/20 01:59:33;;;;;;;1.50;1.40;;;;;20.30;96468.00;;;;5137188;27;20551;-60
2023/08/20 02:02:00;;;;;;;2.50;1.42;;;;;20.30;96469.00;;;;5136259;27;20573;-60
2023/08/20 02:04:29;;;;;;;2.08;1.98;;;;;20.30;96469.00;;;;5136228;27;20189;-60
2023/08/20 02:06:56;;;;;;;2.10;1.90;;;;;20.30;96462.00;;;;5136312;27;20205;-60
2023/08/20 02:09:24;;;;;;;0.95;0.95;;;;;20.20;96465.00;;;;5136625;27;20185;-60
2023/08/20 02:11:51;;;;;;;1.73;1.63;;;;;20.20;96468.00;;;;5136629;27;20649;-60
2023/08/20 02:14:19;;;;;;;1.55;1.45;;;;;20.10;96469.00;;;;5134523;27;20213;-60
2023/08/20 02:16:48;;;;;;;1.10;1.10;;;;;20.10;96475.00;;;;5135635;27;20229;-60
2023/08/20 02:19:16;;;;;;;2.05;1.95;;;;;20.10;96468.00;;;;5136086;27;20189;-60
2023/08/20 02:21:44;;;;;;;1.70;1.60;;;;;20.00;96471.00;;;;5135936;27;20216;-60
2023/08/20 02:24:12;;;;;;;3.05;2.30;;;;;20.00;96472.00;;;;5135454;27;20197;-60
2023/08/20 02:26:39;;;;;;;1.55;1.48;;;;;20.00;96474.00;;;;5135724;27;20302;-60
2023/08/20 02:29:06;;;;;;;2.22;2.13;;;;;19.90;96472.00;;;;5135929;27;20256;-60
2023/08/20 02:31:34;;;;;;;1.98;1.88;;;;;19.90;96462.00;;;;5135228;27;20189;-60
2023/08/20 02:34:01;;;;;;;1.80;1.70;;;;;19.90;96468.00;;;;5135064;27;20220;-60
2023/08/20 02:36:29;;;;;;;4.30;2.38;;;;;19.90;96471.00;;;;5133811;27;20682;-59
2023/08/20 02:38:58;;;;;;;2.03;1.93;;;;;19.80;96476.00;;;;5135015;27;20548;-61
2023/08/20 02:41:25;;;;;;;1.25;1.15;;;;;19.80;96473.00;;;;5134951;27;20194;-60
2023/08/20 02:43:52;;;;;;;2.15;2.05;;;;;19.80;96488.00;;;;5135094;27;20196;-61
2023/08/20 02:46:20;;;;;;;1.50;1.40;;;;;19.80;96483.00;;;;5134758;27;20213;-60
2023/08/20 02:48:47;;;;;;;3.17;2.00;;;;;19.90;96485.00;;;;5134845;27;20208;-60
2023/08/20 02:51:14;;;;;;;1.43;1.43;;;;;19.90;96477.00;;;;5134774;27;20313;-60
2023/08/20 02:53:42;;;;;;;1.60;1.50;;;;;19.90;96471.00;;;;5133355;27;20216;-60
2023/08/20 02:56:10;;;;;;;0.70;0.70;;;;;19.90;96467.00;;;;5134651;27;20213;-60
2023/08/20 02:58:38;;;;;;;2.07;1.97;;;;;19.80;96458.00;;;;5135194;27;20190;-60
2023/08/20 03:01:05;;;;;;;3.80;2.63;;;;;19.80;96452.00;;;;5134563;27;20192;-60
2023/08/20 03:03:33;;;;;;;1.60;1.50;;;;;19.60;96450.00;;;;5133059;27;20197;-60
2023/08/20 03:06:00;;;;;;;1.58;1.48;;;;;19.60;96428.00;;;;5133251;27;20672;-60
2023/08/20 03:08:28;;;;;;;2.87;2.67;;;;;19.60;96434.00;;;;5134664;27;20234;-60
2023/08/20 03:10:55;;;;;;;1.73;1.63;;;;;19.50;96434.00;;;;5134798;27;20189;-60
2023/08/20 03:13:24;;;;;;;7.97;1.87;;;;;19.60;96435.00;;;;5133583;27;20193;-60
2023/08/20 03:15:51;;;;;;;1.60;1.50;;;;;19.50;96436.00;;;;5134342;27;20209;-60
2023/08/20 03:18:19;;;;;;;1.97;1.83;;;;;19.50;96433.00;;;;5134630;27;20217;-60
2023/08/20 03:20:46;;;;;;;1.70;1.60;;;;;19.30;96431.00;;;;5134903;27;20196;-60
2023/08/20 03:23:13;;;;;;;2.80;2.10;;;;;19.40;96442.00;;;;5133892;27;20197;-59
2023/08/20 03:25:41;;;;;;;1.57;1.47;;;;;19.30;96433.00;;;;5134626;27;20193;-59
2023/08/20 03:28:08;;;;;;;1.70;1.60;;;;;19.30;96441.00;;;;5134622;27;20288;-59
2023/08/20 03:30:38;;;;;;;2.80;2.60;;;;;19.40;96441.00;;;;5134512;27;20193;-59
2023/08/20 03:33:05;;;;;;;2.20;2.07;;;;;19.40;96442.00;;;;5134822;27;20197;-59
2023/08/20 03:35:33;;;;;;;1.13;1.13;;;;;19.50;96446.00;;;;5134317;27;20213;-59
2023/08/20 03:38:00;;;;;;;1.50;1.40;;;;;19.40;96446.00;;;;5132942;27;20213;-59
2023/08/20 03:40:29;;;;;;;1.27;1.27;;;;;19.40;96451.00;;;;5134277;28;20193;-59
2023/08/20 03:42:56;;;;;;;2.10;2.00;;;;;19.40;96444.00;;;;5134948;28;20545;-59
2023/08/20 03:45:23;;;;;;;1.67;1.37;;;;;19.30;96444.00;;;;5134303;28;20702;-59
2023/08/20 03:47:52;;;;;;;1.37;1.30;;;;;19.20;96446.00;;;;5134458;28;20212;-60
2023/08/20 03:50:19;;;;;;;1.97;1.87;;;;;19.20;96435.00;;;;5134265;28;20193;-59
2023/08/20 03:52:47;;;;;;;2.03;1.93;;;;;19.20;96433.00;;;;5134283;28;20189;-59
2023/08/20 03:55:14;;;;;;;1.83;1.73;;;;;19.20;96435.00;;;;5134485;28;20240;-60
2023/08/20 03:57:42;;;;;;;1.10;1.00;;;;;19.20;96427.00;;;;5134224;28;20217;-60
2023/08/20 04:00:12;;;;;;;1.83;1.73;;;;;19.20;96431.00;;;;5134145;28;20311;-59
2023/08/20 04:02:39;;;;;;;1.30;1.27;;;;;19.20;96428.00;;;;5134517;28;20272;-59
2023/08/20 04:05:08;;;;;;;1.87;1.43;;;;;19.30;96431.00;;;;5132492;28;20225;-59
2023/08/20 04:07:35;;;;;;;1.60;1.50;;;;;19.30;96438.00;;;;5134002;28;20811;-59
2023/08/20 04:10:03;;;;;;;1.93;1.80;;;;;19.30;96448.00;;;;5134389;28;20194;-59
2023/08/20 04:12:30;;;;;;;2.27;2.17;;;;;19.30;96454.00;;;;5134059;28;20288;-59
2023/08/20 04:14:58;;;;;;;2.20;1.87;;;;;19.30;96455.00;;;;5133648;28;20213;-59
2023/08/20 04:17:25;;;;;;;1.87;1.77;;;;;19.20;96465.00;;;;5133891;28;20612;-59
2023/08/20 04:19:52;;;;;;;2.77;2.57;;;;;19.10;96464.00;;;;5133971;28;20656;-58
2023/08/20 04:22:21;;;;;;;1.90;1.80;;;;;19.10;96461.00;;;;5133987;28;20190;-61
2023/08/20 04:24:48;;;;;;;2.47;2.33;;;;;19.10;96466.00;;;;5136437;27;20189;-60
2023/08/20 04:27:16;;;;;;;2.00;1.83;;;;;19.30;96463.00;;;;5137731;27;20221;-59
2023/08/20 04:29:43;;;;;;;10.60;2.10;;;;;19.20;96468.00;;;;5138026;27;20637;-59
2023/08/20 04:32:10;;;;;;;1.80;1.70;;;;;19.10;96468.00;;;;5137577;27;20212;-59
2023/08/20 04:34:38;;;;;;;1.47;1.37;;;;;19.10;96457.00;;;;5137518;27;20217;-59
2023/08/20 04:37:05;;;;;;;1.53;1.43;;;;;19.10;96453.00;;;;5137457;27;20213;-59
2023/08/20 04:39:34;;;;;;;1.88;1.75;;;;;19.20;96454.00;;;;5137920;27;20268;-59
2023/08/20 04:42:01;;;;;;;1.83;1.73;;;;;19.10;96445.00;;;;5137479;27;20652;-59
2023/08/20 04:44:29;;;;;;;2.47;2.27;;;;;19.20;96452.00;;;;5137861;27;20666;-59
2023/08/20 04:46:56;;;;;;;1.57;1.47;;;;;19.20;96461.00;;;;5137591;27;20205;-59
2023/08/20 04:49:28;;;;;;;1.60;1.50;;;;;19.20;96463.00;;;;5137644;27;20201;-59
2023/08/20 04:51:55;;;;;;;1.37;1.30;;;;;19.10;96465.00;;;;5138353;27;20535;-59
2023/08/20 04:54:22;;;;;;;1.93;1.83;;;;;19.00;96462.00;;;;5137653;27;20560;-59
2023/08/20 04:56:51;;;;;;;2.73;2.53;;;;;19.10;96456.00;;;;5137207;27;20216;-60
2023/08/20 04:59:18;;;;;;;2.07;1.97;;;;;19.20;96459.00;;;;5137167;27;20193;-60
2023/08/20 05:01:46;;;;;;;1.80;1.70;;;;;19.30;96468.00;;;;5137043;27;20193;-60
2023/08/20 05:04:13;;;;;;;1.43;1.43;;;;;19.30;96467.00;;;;5136822;27;20193;-60
2023/08/20 05:06:41;;;;;;;3.03;1.73;;;;;19.40;96464.00;;;;5136951;27;20213;-60
2023/08/20 05:09:08;;;;;;;1.50;1.40;;;;;19.50;96457.00;;;;5137620;27;20512;-60
2023/08/20 05:11:35;;;;;;;4.30;1.87;;;;;19.50;96458.00;;;;5137040;27;20544;-60
2023/08/20 05:14:04;;;;;;;1.73;1.63;;;;;19.60;96470.00;;;;5135451;27;20189;-60
2023/08/20 05:16:31;;;;;;;2.37;1.97;;;;;19.70;96466.00;;;;5136517;27;20217;-61
2023/08/20 05:18:59;;;;;;;1.87;1.77;;;;;19.60;96469.00;;;;5136536;27;20196;-60
2023/08/20 05:21:26;;;;;;;2.07;1.97;;;;;19.60;96467.00;;;;5136438;27;20196;-60
2023/08/20 05:23:53;;;;;;;2.97;1.50;;;;;19.60;96469.00;;;;5136955;27;20189;-60
2023/08/20 05:26:22;;;;;;;1.53;1.43;;;;;19.70;96465.00;;;;5136358;27;20205;-60
2023/08/20 05:28:49;;;;;;;2.30;1.87;;;;;19.80;96463.00;;;;5136415;27;20259;-60
2023/08/20 05:31:18;;;;;;;1.70;1.60;;;;;19.80;96463.00;;;;5136395;27;20576;-60
2023/08/20 05:33:46;;;;;;;1.90;1.80;;;;;19.90;96477.00;;;;5136512;27;20200;-60
2023/08/20 05:36:13;;;;;;;1.20;1.10;;;;;20.00;96483.00;;;;5135076;27;20228;-60
2023/08/20 05:38:42;;;;;;;1.73;1.63;;;;;20.00;96486.00;;;;5136071;27;20185;-60
2023/08/20 05:41:10;;;;;;;1.50;1.40;;;;;20.10;96479.00;;;;5136656;27;20232;-60
2023/08/20 05:43:37;;;;;;;0.90;0.90;;;;;20.10;96480.00;;;;5136343;27;20193;-60
2023/08/20 05:46:05;;;;;;;1.43;1.37;;;;;20.20;96492.00;;;;5136244;27;20206;-60
2023/08/20 05:48:33;;;;;;;1.67;1.60;;;;;20.20;96490.00;;;;5136374;27;20648;-60
2023/08/20 05:51:01;;;;;;;1.97;1.80;;;;;20.30;96477.00;;;;5136658;27;20189;-60
2023/08/20 05:53:28;;;;;;;2.35;2.17;;;;;20.40;96477.00;;;;5136263;27;20189;-60
2023/08/20 05:55:56;;;;;;;2.08;1.95;;;;;20.50;96456.00;;;;5135883;27;20212;-61
2023/08/20 05:58:23;;;;;;;2.13;1.90;;;;;20.60;96491.00;;;;5136748;27;20189;-61
2023/08/20 06:00:50;;;;;;;3.97;3.05;;;;;20.70;96496.00;;;;5136115;27;20276;-60
2023/08/20 06:03:18;;;;;;;2.00;1.90;;;;;20.80;96502.00;;;;5136335;27;20185;-60
2023/08/20 06:05:46;;;;;;;1.77;1.65;;;;;20.80;96492.00;;;;5134453;27;20652;-60
2023/08/20 06:08:14;;;;;;;3.13;2.33;;;;;20.90;96492.00;;;;5135680;27;20189;-60
2023/08/20 06:10:41;;;;;;;2.13;2.03;;;;;21.00;96501.00;;;;5135606;27;20189;-60
2023/08/20 06:13:09;;;;;;;1.70;1.60;;;;;21.20;96491.00;;;;5135566;27;20652;-60
2023/08/20 06:15:36;;;;;;;1.10;1.10;;;;;21.20;96505.00;;;;5135741;27;20223;-60
2023/08/20 06:18:04;;;;;;;1.90;1.80;;;;;21.30;96504.00;;;;5135436;27;20197;-60
2023/08/20 06:20:31;;;;;;;1.55;1.45;;;;;21.40;96507.00;;;;5135633;27;20546;-60
2023/08/20 06:23:00;;;;;;;1.70;1.60;;;;;21.40;96506.00;;;;5135348;27;20189;-60
2023/08/20 06:25:27;;;;;;;3.45;2.60;;;;;21.50;96506.00;;;;5135264;27;20185;-60
2023/08/20 06:27:55;;;;;;;6.43;2.97;;;;;21.60;96509.00;;;;5135144;27;20236;-60
2023/08/20 06:30:22;;;;;;;2.30;2.10;;;;;21.60;96507.00;;;;5135472;27;20189;-61
2023/08/20 06:32:50;;;;;;;2.33;2.13;;;;;21.60;96507.00;;;;5135518;27;20189;-60
2023/08/20 06:35:17;;;;;;;4.40;2.28;;;;;21.60;96509.00;;;;5135350;27;20711;-61
2023/08/20 06:37:45;;;;;;;0.95;0.95;;;;;21.60;96510.00;;;;5133836;27;20214;-60
2023/08/20 06:40:14;;;;;;;2.40;2.13;;;;;21.60;96512.00;;;;5135143;27;20189;-60
2023/08/20 06:42:42;;;;;;;1.63;1.52;;;;;21.30;96512.00;;;;5135017;27;20768;-60
2023/08/20 06:45:10;;;;;;;1.90;1.77;;;;;21.30;96515.00;;;;5134849;27;20204;-60
2023/08/20 06:47:37;;;;;;;2.95;2.60;;;;;21.50;96518.00;;;;5134767;27;20220;-60
2023/08/20 06:50:06;;;;;;;2.47;2.28;;;;;21.50;96515.00;;;;5134788;27;20193;-60
2023/08/20 06:52:33;;;;;;;1.50;1.42;;;;;21.50;96516.00;;;;5135149;27;20201;-60
2023/08/20 06:55:00;;;;;;;1.35;1.35;;;;;21.60;96522.00;;;;5134739;27;20189;-60
2023/08/20 06:57:29;;;;;;;1.40;1.30;;;;;21.70;96524.00;;;;5133238;27;20221;-59
2023/08/20 06:59:57;;;;;;;1.65;1.55;;;;;21.70;96535.00;;;;5134888;27;20192;-61
2023/08/20 07:02:24;;;;;;;2.75;2.55;;;;;21.60;96529.00;;;;5134673;27;20189;-61
2023/08/20 07:04:52;;;;;;;1.60;1.50;;;;;21.70;96525.00;;;;5134466;27;20209;-61
2023/08/20 07:07:19;;;;;;;2.70;2.03;;;;;21.70;96522.00;;;;5134293;27;20300;-59
2023/08/20 07:09:46;;;;;;;1.10;1.10;;;;;21.70;96521.00;;;;5134364;27;20197;-60
2023/08/20 07:12:14;;;;;;;2.92;2.33;;;;;21.90;96524.00;;;;5134464;27;20253;-60
2023/08/20 07:14:43;;;;;;;1.83;1.73;;;;;22.10;96524.00;;;;5132834;27;20200;-60
2023/08/20 07:17:10;;;;;;;2.15;2.05;;;;;22.30;96516.00;;;;5134168;27;20224;-60
2023/08/20 07:19:38;;;;;;;2.03;1.92;;;;;22.50;96529.00;;;;5134255;27;20190;-61
2023/08/20 07:22:06;;;;;;;2.38;2.22;;;;;22.70;96525.00;;;;5134809;27;20277;-59
2023/08/20 07:24:35;;;;;;;2.15;2.05;;;;;22.60;96527.00;;;;5134446;27;20185;-59
2023/08/20 07:27:03;;;;;;;2.45;2.25;;;;;22.90;96531.00;;;;5132690;27;20212;-60
2023/08/20 07:29:30;;;;;;;2.58;2.38;;;;;23.10;96528.00;;;;5134112;27;20192;-60
2023/08/20 07:32:03;;;;;;;1.73;1.63;;;;;23.20;96541.00;;;;5134131;27;20725;-60
2023/08/20 07:34:30;;;;;;;2.72;2.28;;;;;23.20;96537.00;;;;5134031;27;20182;-60
2023/08/20 07:36:57;;;;;;;1.67;1.58;;;;;23.30;96544.00;;;;5133898;27;20230;-60
2023/08/20 07:39:25;;;;;;;3.13;2.70;;;;;23.30;96541.00;;;;5134006;28;20196;-60
2023/08/20 07:41:52;;;;;;;1.92;1.83;;;;;23.30;96551.00;;;;5134070;28;20194;-60
2023/08/20 07:44:20;;;;;;;2.72;2.53;;;;;23.30;96541.00;;;;5134275;28;20559;-60
2023/08/20 07:46:47;;;;;;;1.67;1.58;;;;;23.50;96539.00;;;;5133817;28;20216;-60
2023/08/20 07:49:16;;;;;;;1.85;1.75;;;;;23.60;96551.00;;;;5133965;28;20193;-60
2023/08/20 07:51:43;;;;;;;5.78;1.90;;;;;23.70;96553.00;;;;5133841;28;20248;-60
2023/08/20 07:54:11;;;;;;;2.42;2.33;;;;;23.60;96557.00;;;;5134418;28;20549;-60
2023/08/20 07:56:38;;;;;;;2.35;2.25;;;;;23.90;96542.00;;;;5133712;28;20594;-60
2023/08/20 07:59:06;;;;;;;1.15;1.13;;;;;23.80;96550.00;;;;5135344;27;20780;-59
2023/08/20 08:01:33;;;;;;;2.05;1.95;;;;;24.00;96554.00;;;;5138027;27;20197;-59
2023/08/20 08:04:00;;;;;;;2.03;1.88;;;;;24.00;96554.00;;;;5137845;27;20197;-59
2023/08/20 08:06:29;;;;;;;2.38;2.13;;;;;24.30;96551.00;;;;5137848;27;20224;-59
2023/08/20 08:08:57;;;;;;;2.78;2.58;;;;;24.50;96545.00;;;;5137897;27;20200;-59
2023/08/20 08:11:25;;;;;;;3.42;3.03;;;;;24.50;96551.00;;;;5138052;27;20185;-59
2023/08/20 08:13:52;;;;;;;2.55;2.35;;;;;24.70;96543.00;;;;5138665;27;20189;-60
2023/08/20 08:16:19;;;;;;;1.65;1.55;;;;;24.80;96552.00;;;;5137587;27;20228;-60
2023/08/20 08:18:47;;;;;;;2.53;1.85;;;;;24.90;96557.00;;;;5137759;27;20190;-60
2023/08/20 08:21:14;;;;;;;2.47;1.90;;;;;25.00;96553.00;;;;5137527;27;20201;-60
2023/08/20 08:23:43;;;;;;;2.72;2.47;;;;;25.10;96536.00;;;;5137550;27;20697;-60
2023/08/20 08:26:10;;;;;;;1.80;1.70;;;;;25.20;96558.00;;;;5137517;27;20212;-60
2023/08/20 08:28:38;;;;;;;2.72;2.22;;;;;25.40;96555.00;;;;5138039;27;20193;-60
2023/08/20 08:31:05;;;;;;;2.47;2.28;;;;;25.50;96542.00;;;;5137887;27;20264;-61
2023/08/20 08:33:33;;;;;;;1.75;1.65;;;;;25.60;96547.00;;;;5137409;27;20603;-60
2023/08/20 08:36:00;;;;;;;2.17;2.08;;;;;25.70;96552.00;;;;5137287;27;20266;-60
2023/08/20 08:38:28;;;;;;;1.45;1.40;;;;;25.60;96550.00;;;;5137438;27;20687;-60
2023/08/20 08:40:57;;;;;;;1.88;1.77;;;;;25.80;96549.00;;;;5137298;27;20193;-60
2023/08/20 08:43:25;;;;;;;2.20;2.00;;;;;25.80;96546.00;;;;5137285;27;20294;-61
2023/08/20 08:45:55;;;;;;;1.80;1.70;;;;;26.00;96550.00;;;;5137439;27;20182;-60
2023/08/20 08:48:22;;;;;;;2.30;1.98;;;;;26.10;96559.00;;;;5137700;27;20671;-61
2023/08/20 08:50:52;;;;;;;4.18;2.92;;;;;26.10;96554.00;;;;5137111;27;20609;-61
2023/08/20 08:53:19;;;;;;;3.28;2.20;;;;;26.30;96549.00;;;;5137317;27;20193;-61
2023/08/20 08:55:47;;;;;;;4.68;2.47;;;;;26.30;96551.00;;;;5136808;27;20209;-61
2023/08/20 08:58:16;;;;;;;2.33;2.13;;;;;26.40;96547.00;;;;5137044;27;20196;-60
2023/08/20 09:00:44;;;;;;;1.25;1.25;;;;;26.60;96553.00;;;;5135744;27;20190;-60
2023/08/20 09:03:11;;;;;;;1.65;1.55;;;;;26.90;96548.00;;;;5137476;27;20196;-59
2023/08/20 09:05:48;;;;;;;1.65;1.55;;;;;27.10;96554.00;;;;5136517;27;20200;-60
2023/08/20 09:08:21;;;;;;;2.13;2.03;;;;;27.20;96553.00;;;;5135625;27;20359;-60
2023/08/20 09:10:52;;;;;;;1.75;1.65;;;;;27.30;96560.00;;;;5136947;27;20185;-60
2023/08/20 09:13:24;;;;;;;1.23;1.23;;;;;27.30;96567.00;;;;5136925;27;20238;-60
2023/08/20 09:15:52;;;;;;;1.77;1.67;;;;;27.40;96565.00;;;;5136714;27;20228;-59
2023/08/20 09:18:20;;;;;;;2.17;2.05;;;;;27.50;96564.00;;;;5137071;27;20196;-60
2023/08/20 09:20:50;;;;;;;1.42;1.40;;;;;27.40;96564.00;;;;5136540;27;20197;-60
2023/08/20 09:23:17;;;;;;;1.85;1.75;;;;;27.50;96565.00;;;;5136705;27;20228;-60
2023/08/20 09:25:46;;;;;;;1.88;1.73;;;;;27.60;96553.00;;;;5136465;27;20664;-61
2023/08/20 09:28:15;;;;;;;2.00;1.55;;;;;27.70;96564.00;;;;5136363;27;20276;-60
2023/08/20 09:30:56;;;;;;;2.22;1.77;;;;;27.70;96563.00;;;;5136377;27;20186;-60
2023/08/20 09:33:24;;;;;;;1.58;1.45;;;;;27.70;96566.00;;;;5136888;27;20205;-60
2023/08/20 09:35:53;;;;;;;1.33;1.30;;;;;27.80;96563.00;;;;5136260;27;20272;-61
2023/08/20 09:38:22;;;;;;;2.03;1.90;;;;;27.80;96560.00;;;;5136315;27;20197;-61
2023/08/20 09:40:52;;;;;;;1.33;1.23;;;;;27.90;96565.00;;;;5136502;27;20277;-61
2023/08/20 09:43:20;;;;;;;1.65;1.55;;;;;28.00;96565.00;;;;5135985;27;20613;-61
2023/08/20 09:45:49;;;;;;;1.70;1.60;;;;;28.10;96560.00;;;;5135920;27;20193;-59
2023/08/20 09:48:21;;;;;;;2.03;1.45;;;;;28.20;96568.00;;;;5136177;27;20619;-60
2023/08/20 09:50:49;;;;;;;2.60;2.33;;;;;28.30;96572.00;;;;5136024;27;20178;-61
2023/08/20 09:53:29;;;;;;;7.32;2.80;;;;;28.50;96563.00;;;;5135993;27;20189;-60
2023/08/20 09:56:04;;;;;;;1.05;1.05;;;;;28.50;96560.00;;;;5135864;27;20266;-61
2023/08/20 09:58:34;;;;;;;3.22;2.05;;;;;28.50;96560.00;;;;5135952;27;20177;-61
2023/08/20 10:01:03;;;;;;;3.05;2.78;;;;;28.60;96563.00;;;;5136197;27;20199;-61
2023/08/20 10:03:31;;;;;;;1.42;1.33;;;;;28.70;96560.00;;;;5134406;27;20561;-61
2023/08/20 10:06:01;;;;;;;2.63;2.42;;;;;28.90;96561.00;;;;5135934;27;20221;-60
2023/08/20 10:08:29;;;;;;;1.73;1.63;;;;;29.10;96558.00;;;;5135705;27;20191;-60
2023/08/20 10:10:56;;;;;;;4.10;3.47;;;;;29.10;96563.00;;;;5136063;27;20194;-61
2023/08/20 10:13:24;;;;;;;5.80;1.90;;;;;29.30;96570.00;;;;5135536;27;20595;-60
2023/08/20 10:15:54;;;;;;;2.38;2.17;;;;;29.30;96566.00;;;;5135806;27;20271;-60
2023/08/20 10:18:23;;;;;;;1.42;1.33;;;;;29.30;96561.00;;;;5135571;27;20185;-60
2023/08/20 10:20:51;;;;;;;5.60;1.73;;;;;29.50;96566.00;;;;5135516;27;20194;-60
2023/08/20 10:23:23;;;;;;;2.00;1.90;;;;;29.50;96565.00;;;;5134827;27;20560;-60
2023/08/20 10:25:52;;;;;;;1.55;1.45;;;;;29.50;96563.00;;;;5135737;27;20209;-60
2023/08/20 10:28:22;;;;;;;2.05;1.92;;;;;29.70;96569.00;;;;5135297;27;20197;-61
2023/08/20 10:31:07;;;;;;;1.58;1.48;;;;;29.80;96567.00;;;;5135894;27;20698;-61
2023/08/20 10:33:37;;;;;;;2.50;2.30;;;;;29.70;96568.00;;;;5135391;27;20189;-61
2023/08/20 10:36:15;;;;;;;3.70;1.83;;;;;29.90;96568.00;;;;5135786;27;20209;-61
2023/08/20 10:38:45;;;;;;;1.67;1.58;;;;;30.00;96560.00;;;;5135655;27;20186;-61
2023/08/20 10:41:14;;;;;;;1.95;1.77;;;;;30.20;96562.00;;;;5135593;27;20203;-61
2023/08/20 10:43:47;;;;;;;1.48;1.38;;;;;30.40;96566.00;;;;5135016;27;20201;-61
2023/08/20 10:46:18;;;;;;;1.90;1.80;;;;;30.30;96557.00;;;;5135036;27;20209;-61
2023/08/20 10:48:51;;;;;;;1.40;1.30;;;;;30.50;96559.00;;;;5135236;27;20197;-61
2023/08/20 10:51:20;;;;;;;2.65;2.45;;;;;30.60;96558.00;;;;5134883;27;20190;-61
2023/08/20 10:54:03;;;;;;;2.20;2.05;;;;;30.70;96551.00;;;;5135103;27;20583;-61
2023/08/20 10:56:41;;;;;;;1.77;1.67;;;;;30.80;96560.00;;;;5134640;27;20312;-61
2023/08/20 10:59:14;;;;;;;1.80;1.70;;;;;30.80;96557.00;;;;5135397;27;20621;-62
2023/08/20 11:01:45;;;;;;;1.48;1.20;;;;;30.70;96557.00;;;;5135269;27;20178;-61
2023/08/20 11:04:15;;;;;;;1.63;1.50;;;;;30.80;96552.00;;;;5134480;27;20292;-61
2023/08/20 11:06:43;;;;;;;1.20;1.20;;;;;31.00;96548.00;;;;5134595;27;20216;-61
2023/08/20 11:09:11;;;;;;;5.70;2.20;;;;;31.20;96551.00;;;;5134614;27;20656;-61
2023/08/20 11:11:39;;;;;;;2.15;2.05;;;;;31.30;96547.00;;;;5134474;27;20193;-61
2023/08/20 11:14:08;;;;;;;6.93;2.40;;;;;31.40;96543.00;;;;5133199;27;20676;-61
2023/08/20 11:16:36;;;;;;;2.00;1.90;;;;;31.60;96544.00;;;;5134796;27;20221;-62
2023/08/20 11:19:08;;;;;;;2.05;1.77;;;;;31.60;96547.00;;;;5134504;27;20209;-62
2023/08/20 11:21:38;;;;;;;5.03;2.05;;;;;31.60;96547.00;;;;5134547;27;20185;-62
2023/08/20 11:24:07;;;;;;;2.22;2.13;;;;;31.60;96547.00;;;;5134859;27;20193;-62
2023/08/20 11:26:35;;;;;;;2.00;1.90;;;;;31.70;96542.00;;;;5134233;27;20300;-61
2023/08/20 11:29:06;;;;;;;1.48;1.42;;;;;31.80;96539.00;;;;5134452;27;20193;-62
2023/08/20 11:31:34;;;;;;;1.70;1.58;;;;;32.00;96541.00;;;;5134284;27;20174;-62
2023/08/20 11:34:02;;;;;;;1.02;1.02;;;;;32.10;96542.00;;;;5133894;27;20190;-61
2023/08/20 11:36:29;;;;;;;3.92;2.60;;;;;32.10;96542.00;;;;5134040;27;20722;-61
2023/08/20 11:38:58;;;;;;;2.22;2.05;;;;;32.30;96540.00;;;;5134196;27;20246;-61
2023/08/20 11:41:26;;;;;;;2.35;2.25;;;;;32.50;96542.00;;;;5134500;28;20189;-61
2023/08/20 11:43:54;;;;;;;2.30;1.92;;;;;32.60;96539.00;;;;5134412;28;20200;-61
2023/08/20 11:46:23;;;;;;;1.55;1.45;;;;;32.60;96534.00;;;;5133978;28;20711;-61
2023/08/20 11:49:01;;;;;;;1.70;1.60;;;;;32.50;96510.00;;;;5133978;28;20644;-60
2023/08/20 11:51:28;;;;;;;2.33;2.03;;;;;32.50;96535.00;;;;5134048;28;20189;-60
2023/08/20 11:53:58;;;;;;;1.23;1.23;;;;;32.70;96538.00;;;;5133977;28;20213;-60
2023/08/20 11:56:25;;;;;;;1.58;1.48;;;;;32.80;96546.00;;;;5134043;28;20209;-60
2023/08/20 11:58:54;;;;;;;1.30;1.27;;;;;33.00;96530.00;;;;5132579;28;20208;-60
2023/08/20 12:01:21;;;;;;;1.92;1.80;;;;;33.30;96549.00;;;;5133944;28;20186;-60
2023/08/20 12:03:49;;;;;;;1.30;1.20;;;;;33.10;96535.00;;;;5133692;28;20192;-59
2023/08/20 12:06:19;;;;;;;2.53;1.83;;;;;33.00;96534.00;;;;5133779;28;20217;-60
2023/08/20 12:08:46;;;;;;;1.38;1.33;;;;;33.00;96535.00;;;;5133768;28;20170;-60
2023/08/20 12:11:15;;;;;;;2.30;2.20;;;;;33.20;96542.00;;;;5133816;28;20194;-59
2023/08/20 12:13:43;;;;;;;1.77;1.40;;;;;33.50;96539.00;;;;5133721;28;20712;-59
2023/08/20 12:16:10;;;;;;;2.42;2.25;;;;;33.40;96535.00;;;;5134207;28;20209;-60
2023/08/20 12:18:38;;;;;;;3.40;2.22;;;;;33.60;96533.00;;;;5133501;28;20209;-60
2023/08/20 12:21:05;;;;;;;1.50;1.40;;;;;33.70;96534.00;;;;5133785;28;20276;-60
2023/08/20 12:23:33;;;;;;;3.88;3.35;;;;;33.80;96539.00;;;;5134449;28;20644;-60
2023/08/20 12:26:00;;;;;;;4.28;3.90;;;;;33.80;96537.00;;;;5134049;28;20209;-62